createdAt,value
2023-05-15T00:02:24.452Z,19.34
2023-05-15T00:04:51.479Z,18.91
2023-05-15T00:07:18.379Z,18.83
2023-05-15T00:09:45.205Z,18.88
2023-05-15T00:12:12.083Z,18.72
2023-05-15T00:14:38.909Z,19.01
2023-05-15T00:17:06.361Z,18.93
2023-05-15T00:19:34.239Z,18.65
2023-05-15T00:22:01.355Z,18.85
2023-05-15T00:24:28.209Z,18.99
2023-05-15T00:26:55.071Z,19.47
2023-05-15T00:29:21.941Z,19.20
2023-05-15T00:31:48.968Z,18.93
2023-05-15T00:34:15.903Z,18.83
2023-05-15T00:36:42.850Z,19.23
2023-05-15T00:39:09.717Z,19.23
2023-05-15T00:41:37.476Z,19.17
2023-05-15T00:44:04.558Z,18.62
2023-05-15T00:46:32.601Z,18.87
2023-05-15T00:48:59.911Z,19.26
2023-05-15T00:51:27.456Z,18.40
2023-05-15T00:53:55.155Z,18.88
2023-05-15T00:56:22.308Z,18.60
2023-05-15T00:58:55.865Z,18.31
2023-05-15T01:01:22.842Z,18.74
2023-05-15T01:03:49.893Z,18.48
2023-05-15T01:06:16.776Z,18.71
2023-05-15T01:08:46.240Z,18.87
2023-05-15T01:11:14.734Z,18.85
2023-05-15T01:13:41.651Z,18.70
2023-05-15T01:16:09.326Z,18.81
2023-05-15T01:18:52.436Z,18.32
2023-05-15T01:21:34.569Z,18.75
2023-05-15T01:24:26.380Z,18.19
2023-05-15T01:27:05.380Z,18.75
2023-05-15T01:30:09.502Z,18.21
2023-05-15T01:33:06.053Z,17.84
2023-05-15T01:36:01.129Z,17.51
2023-05-15T01:38:39.243Z,17.64
2023-05-15T01:41:09.705Z,17.50
2023-05-15T01:43:40.361Z,17.85
2023-05-15T01:46:08.056Z,17.77
2023-05-15T01:48:36.645Z,17.41
2023-05-15T01:51:05.416Z,18.19
2023-05-15T01:53:33.334Z,17.90
2023-05-15T01:56:00.306Z,18.20
2023-05-15T01:58:27.735Z,18.10
2023-05-15T02:00:55.506Z,18.18
2023-05-15T02:03:22.526Z,18.01
2023-05-15T02:05:49.877Z,18.62
2023-05-15T02:08:16.992Z,18.53
2023-05-15T02:10:44.190Z,18.42
2023-05-15T02:13:11.695Z,18.55
2023-05-15T02:15:38.891Z,18.06
2023-05-15T02:18:06.064Z,17.90
2023-05-15T02:20:32.937Z,18.05
2023-05-15T02:22:59.808Z,17.43
2023-05-15T02:25:35.318Z,17.60
2023-05-15T02:28:05.116Z,18.15
2023-05-15T02:30:46.731Z,18.13
2023-05-15T02:33:25.618Z,18.23
2023-05-15T02:35:55.244Z,18.53
2023-05-15T02:38:41.693Z,18.22
2023-05-15T02:41:09.982Z,18.39
2023-05-15T02:43:37.484Z,18.79
2023-05-15T02:46:05.633Z,18.64
2023-05-15T02:48:34.941Z,18.35
2023-05-15T02:51:01.807Z,17.81
2023-05-15T02:53:28.874Z,17.69
2023-05-15T02:55:55.684Z,18.11
2023-05-15T02:58:22.500Z,17.71
2023-05-15T03:00:49.463Z,17.82
2023-05-15T03:03:16.332Z,17.51
2023-05-15T03:05:43.164Z,17.62
2023-05-15T03:08:09.992Z,18.34
2023-05-15T03:10:36.834Z,18.64
2023-05-15T03:13:03.755Z,17.59
2023-05-15T03:15:30.660Z,16.38
2023-05-15T03:17:57.583Z,15.85
2023-05-15T03:20:24.545Z,16.28
2023-05-15T03:22:51.384Z,16.36
2023-05-15T03:25:18.385Z,16.21
2023-05-15T03:27:45.216Z,17.58
2023-05-15T03:30:21.887Z,17.18
2023-05-15T03:32:48.804Z,17.10
2023-05-15T03:35:15.694Z,17.26
2023-05-15T03:37:42.587Z,17.14
2023-05-15T03:40:09.784Z,16.74
2023-05-15T03:42:36.622Z,16.12
2023-05-15T03:45:03.527Z,16.40
2023-05-15T03:47:30.473Z,17.17
2023-05-15T03:49:57.343Z,16.49
2023-05-15T03:52:24.159Z,16.78
2023-05-15T03:54:51.144Z,17.10
2023-05-15T03:57:18.045Z,17.42
2023-05-15T03:59:48.855Z,17.37
2023-05-15T04:02:15.822Z,17.09
2023-05-15T04:04:44.417Z,16.84
2023-05-15T04:07:11.283Z,16.46
2023-05-15T04:09:39.103Z,16.06
2023-05-15T04:12:06.327Z,16.23
2023-05-15T04:14:33.166Z,16.13
2023-05-15T04:16:59.979Z,16.54
2023-05-15T04:19:30.871Z,16.86
2023-05-15T04:21:57.670Z,17.28
2023-05-15T04:24:24.483Z,17.10
2023-05-15T04:26:51.462Z,17.32
2023-05-15T04:29:18.367Z,17.20
2023-05-15T04:31:45.303Z,17.61
2023-05-15T04:34:12.257Z,17.13
2023-05-15T04:36:40.662Z,17.45
2023-05-15T04:39:08.525Z,17.71
2023-05-15T04:41:35.361Z,17.66
2023-05-15T04:44:02.174Z,17.91
2023-05-15T04:46:29.524Z,17.84
2023-05-15T04:48:56.715Z,17.78
2023-05-15T04:51:23.593Z,18.16
2023-05-15T04:53:50.453Z,18.33
2023-05-15T04:56:17.300Z,18.09
2023-05-15T04:58:44.134Z,18.25
2023-05-15T05:01:10.978Z,18.28
2023-05-15T05:03:37.916Z,18.42
2023-05-15T05:06:05.055Z,18.48
2023-05-15T05:08:34.176Z,18.42
2023-05-15T05:11:00.994Z,18.53
2023-05-15T05:13:28.015Z,18.70
2023-05-15T05:15:54.897Z,18.20
2023-05-15T05:18:21.805Z,18.23
2023-05-15T05:20:48.656Z,18.24
2023-05-15T05:23:15.480Z,17.72
2023-05-15T05:25:42.493Z,17.59
2023-05-15T05:28:09.335Z,17.16
2023-05-15T05:30:36.147Z,17.78
2023-05-15T05:33:03.148Z,18.13
2023-05-15T05:35:30.173Z,17.93
2023-05-15T05:37:56.990Z,18.38
2023-05-15T05:40:23.949Z,18.06
2023-05-15T05:42:50.837Z,18.93
2023-05-15T05:45:17.800Z,18.84
2023-05-15T05:47:44.693Z,19.59
2023-05-15T05:50:12.046Z,19.51
2023-05-15T05:52:38.873Z,19.78
2023-05-15T05:55:06.180Z,19.60
2023-05-15T05:57:33.113Z,19.68
2023-05-15T06:00:02.330Z,19.40
2023-05-15T06:02:29.353Z,18.91
2023-05-15T06:04:56.305Z,18.88
2023-05-15T06:07:23.609Z,20.47
2023-05-15T06:09:50.445Z,19.86
2023-05-15T06:12:17.358Z,20.34
2023-05-15T06:14:44.211Z,20.90
2023-05-15T06:17:11.202Z,20.94
2023-05-15T06:19:38.187Z,20.37
2023-05-15T06:22:05.180Z,20.90
2023-05-15T06:24:32.134Z,20.68
2023-05-15T06:26:58.953Z,20.63
2023-05-15T06:29:27.243Z,19.60
2023-05-15T06:31:54.102Z,20.80
2023-05-15T06:34:20.948Z,20.87
2023-05-15T06:36:47.785Z,21.07
2023-05-15T06:39:15.645Z,20.74
2023-05-15T06:41:42.510Z,20.57
2023-05-15T06:44:09.339Z,20.60
2023-05-15T06:46:36.217Z,20.75
2023-05-15T06:49:03.290Z,20.55
2023-05-15T06:51:30.137Z,20.49
2023-05-15T06:53:57.024Z,20.28
2023-05-15T06:56:24.187Z,21.42
2023-05-15T06:58:51.348Z,21.46
2023-05-15T07:01:18.236Z,21.42
2023-05-15T07:03:45.195Z,21.82
2023-05-15T07:06:12.044Z,22.40
2023-05-15T07:08:42.206Z,22.39
2023-05-15T07:11:09.137Z,22.88
2023-05-15T07:13:36.136Z,21.98
2023-05-15T07:16:03.766Z,21.57
2023-05-15T07:18:31.679Z,20.62
2023-05-15T07:21:00.263Z,20.19
2023-05-15T07:23:27.302Z,20.29
2023-05-15T07:25:57.008Z,20.61
2023-05-15T07:28:23.930Z,20.50
2023-05-15T07:30:51.100Z,21.08
2023-05-15T07:33:17.984Z,21.61
2023-05-15T07:35:44.877Z,21.72
2023-05-15T07:38:11.738Z,21.27
2023-05-15T07:40:38.908Z,21.51
2023-05-15T07:43:05.754Z,21.58
2023-05-15T07:45:32.639Z,21.36
2023-05-15T07:48:14.280Z,20.98
2023-05-15T07:50:41.356Z,20.96
2023-05-15T07:53:08.264Z,20.78
2023-05-15T07:55:35.114Z,20.31
2023-05-15T07:58:01.955Z,19.94
2023-05-15T08:00:29.073Z,20.04
2023-05-15T08:02:56.509Z,19.73
2023-05-15T08:05:23.532Z,19.68
2023-05-15T08:07:50.963Z,19.83
2023-05-15T08:10:17.859Z,20.17
2023-05-15T08:12:46.804Z,20.42
2023-05-15T08:15:13.972Z,19.88
2023-05-15T08:17:41.594Z,20.21
2023-05-15T08:20:08.983Z,19.63
2023-05-15T08:22:35.955Z,19.16
2023-05-15T08:25:07.186Z,18.59
2023-05-15T08:27:34.075Z,18.94
2023-05-15T08:30:00.955Z,19.29
2023-05-15T08:32:30.913Z,20.04
2023-05-15T08:34:58.310Z,20.47
2023-05-15T08:37:25.289Z,20.27
2023-05-15T08:39:52.127Z,20.77
2023-05-15T08:42:22.111Z,20.27
2023-05-15T08:44:48.975Z,20.91
2023-05-15T08:47:16.226Z,21.12
2023-05-15T08:50:01.516Z,21.40
2023-05-15T08:52:29.070Z,21.74
2023-05-15T08:54:56.356Z,21.88
2023-05-15T08:57:23.332Z,22.50
2023-05-15T08:59:51.818Z,22.29
2023-05-15T09:02:19.902Z,22.40
2023-05-15T09:04:46.913Z,22.34
2023-05-15T09:07:15.808Z,21.64
2023-05-15T09:09:45.613Z,21.74
2023-05-15T09:12:15.668Z,21.53
2023-05-15T09:14:45.944Z,22.07
2023-05-15T09:17:12.913Z,21.53
2023-05-15T09:19:42.974Z,21.14
2023-05-15T09:22:24.436Z,21.46
2023-05-15T09:24:53.423Z,20.16
2023-05-15T09:27:20.763Z,20.88
2023-05-15T09:29:47.677Z,20.28
2023-05-15T09:32:15.403Z,20.50
2023-05-15T09:34:44.112Z,20.94
2023-05-15T09:37:13.290Z,21.46
2023-05-15T09:39:45.046Z,22.14
2023-05-15T09:42:15.916Z,22.88
2023-05-15T09:44:43.816Z,22.34
2023-05-15T09:47:11.862Z,21.73
2023-05-15T09:49:39.149Z,21.06
2023-05-15T09:52:10.034Z,20.56
2023-05-15T09:54:37.689Z,19.93
2023-05-15T09:57:09.521Z,20.08
2023-05-15T09:59:36.895Z,20.31
2023-05-15T10:02:03.893Z,20.62
2023-05-15T10:04:35.927Z,21.04
2023-05-15T10:07:02.811Z,21.07
2023-05-15T10:09:32.873Z,21.74
2023-05-15T10:11:59.920Z,22.43
2023-05-15T10:14:28.542Z,22.65
2023-05-15T10:16:56.631Z,22.13
2023-05-15T10:19:24.164Z,22.18
2023-05-15T10:21:51.916Z,20.60
2023-05-15T10:24:20.754Z,21.67
2023-05-15T10:26:48.024Z,22.23
2023-05-15T10:29:16.924Z,23.26
2023-05-15T10:31:44.043Z,23.51
2023-05-15T10:34:11.256Z,24.04
2023-05-15T10:36:38.839Z,23.18
2023-05-15T10:39:07.891Z,23.44
2023-05-15T10:41:37.487Z,23.66
2023-05-15T10:44:04.525Z,22.34
2023-05-15T10:46:33.846Z,21.84
2023-05-15T10:49:01.861Z,21.16
2023-05-15T10:51:30.967Z,22.08
2023-05-15T10:53:57.912Z,21.57
2023-05-15T10:56:30.794Z,21.77
2023-05-15T10:58:57.990Z,22.10
2023-05-15T11:01:26.784Z,23.08
2023-05-15T11:04:11.242Z,22.61
2023-05-15T11:06:40.451Z,23.49
2023-05-15T11:09:22.831Z,22.65
2023-05-15T11:11:52.721Z,22.66
2023-05-15T11:14:20.027Z,23.40
2023-05-15T11:16:53.332Z,24.29
2023-05-15T11:19:31.375Z,24.47
2023-05-15T11:21:58.848Z,24.76
2023-05-15T11:24:33.178Z,24.87
2023-05-15T11:27:04.488Z,25.00
2023-05-15T11:29:35.277Z,24.87
2023-05-15T11:32:02.183Z,25.42
2023-05-15T11:34:35.859Z,25.68
2023-05-15T11:37:02.756Z,25.77
2023-05-15T11:39:29.741Z,25.77
2023-05-15T11:41:57.113Z,25.11
2023-05-15T11:44:24.936Z,24.70
2023-05-15T11:46:51.953Z,24.97
2023-05-15T11:49:20.110Z,25.18
2023-05-15T11:51:50.626Z,24.10
2023-05-15T11:54:17.875Z,22.78
2023-05-15T11:56:45.155Z,24.88
2023-05-15T11:59:15.281Z,25.08
2023-05-15T12:01:43.101Z,25.62
2023-05-15T12:04:15.007Z,25.11
2023-05-15T12:06:47.495Z,25.33
2023-05-15T12:09:16.825Z,25.71
2023-05-15T12:11:52.263Z,25.58
2023-05-15T12:14:29.437Z,25.89
2023-05-15T12:17:02.991Z,25.53
2023-05-15T12:19:33.580Z,24.88
2023-05-15T12:22:00.572Z,25.26
2023-05-15T12:24:27.422Z,25.80
2023-05-15T12:26:56.622Z,25.70
2023-05-15T12:29:31.396Z,25.95
2023-05-15T12:31:58.379Z,25.90
2023-05-15T12:34:26.259Z,24.81
2023-05-15T12:36:53.069Z,25.13
2023-05-15T12:39:19.886Z,25.35
2023-05-15T12:41:47.808Z,23.95
2023-05-15T12:44:17.363Z,22.78
2023-05-15T12:46:44.415Z,24.36
2023-05-15T12:49:12.145Z,24.65
2023-05-15T12:51:45.441Z,24.57
2023-05-15T12:54:20.108Z,25.14
2023-05-15T12:56:49.944Z,24.81
2023-05-15T12:59:19.092Z,24.28
2023-05-15T13:01:46.176Z,24.72
2023-05-15T13:04:19.470Z,23.33
2023-05-15T13:06:47.975Z,23.94
2023-05-15T13:09:30.781Z,24.12
2023-05-15T13:11:57.598Z,23.70
2023-05-15T13:14:27.349Z,23.52
2023-05-15T13:16:54.180Z,23.80
2023-05-15T13:19:22.143Z,24.57
2023-05-15T13:21:50.918Z,24.33
2023-05-15T13:24:17.959Z,24.63
2023-05-15T13:26:44.806Z,24.91
2023-05-15T13:29:11.654Z,24.93
2023-05-15T13:31:38.666Z,22.71
2023-05-15T13:34:05.596Z,23.81
2023-05-15T13:36:32.490Z,24.40
2023-05-15T13:39:12.296Z,25.14
2023-05-15T13:41:39.206Z,25.36
2023-05-15T13:44:06.526Z,25.08
2023-05-15T13:46:33.565Z,24.74
2023-05-15T13:49:07.792Z,24.95
2023-05-15T13:51:34.649Z,24.75
2023-05-15T13:54:01.537Z,23.79
2023-05-15T13:56:28.490Z,23.76
2023-05-15T13:58:56.347Z,24.40
2023-05-15T14:01:23.281Z,23.89
2023-05-15T14:03:50.161Z,24.38
2023-05-15T14:06:17.077Z,24.00
2023-05-15T14:08:44.975Z,24.41
2023-05-15T14:11:12.100Z,24.62
2023-05-15T14:13:38.884Z,24.36
2023-05-15T14:16:06.037Z,24.20
2023-05-15T14:18:32.984Z,22.93
2023-05-15T14:20:59.846Z,23.26
2023-05-15T14:23:26.680Z,21.86
2023-05-15T14:25:53.496Z,21.30
2023-05-15T14:28:20.343Z,21.63
2023-05-15T14:30:47.253Z,20.65
2023-05-15T14:33:14.414Z,19.50
2023-05-15T14:35:41.313Z,19.48
2023-05-15T14:38:13.072Z,19.17
2023-05-15T14:40:40.030Z,19.07
2023-05-15T14:43:06.802Z,19.43
2023-05-15T14:45:33.640Z,19.20
2023-05-15T14:48:00.599Z,19.79
2023-05-15T14:50:27.892Z,20.14
2023-05-15T14:52:54.954Z,19.96
2023-05-15T14:55:24.732Z,19.87
2023-05-15T14:57:51.536Z,20.24
2023-05-15T15:00:18.518Z,20.23
2023-05-15T15:02:46.439Z,20.50
2023-05-15T15:05:13.462Z,20.57
2023-05-15T15:08:00.856Z,20.36
2023-05-15T15:10:28.325Z,20.15
2023-05-15T15:12:55.352Z,20.23
2023-05-15T15:15:22.996Z,20.64
2023-05-15T15:17:51.207Z,21.25
2023-05-15T15:20:20.394Z,20.97
2023-05-15T15:22:47.752Z,21.19
2023-05-15T15:25:14.641Z,21.07
2023-05-15T15:27:41.463Z,20.84
2023-05-15T15:30:18.365Z,20.79
2023-05-15T15:32:45.643Z,20.48
2023-05-15T15:35:13.254Z,20.07
2023-05-15T15:37:40.142Z,20.15
2023-05-15T15:40:10.136Z,20.57
2023-05-15T15:42:37.032Z,19.90
2023-05-15T15:45:04.876Z,19.51
2023-05-15T15:47:32.460Z,19.35
2023-05-15T15:50:00.013Z,19.04
2023-05-15T15:52:27.368Z,19.05
2023-05-15T15:54:54.396Z,18.90
2023-05-15T15:57:21.883Z,19.84
2023-05-15T15:59:49.421Z,19.80
2023-05-15T16:02:17.558Z,19.78
2023-05-15T16:04:44.807Z,19.84
2023-05-15T16:07:11.698Z,18.85
2023-05-15T16:09:40.677Z,19.24
2023-05-15T16:12:07.722Z,18.96
2023-05-15T16:14:34.546Z,19.36
2023-05-15T16:17:02.697Z,19.56
2023-05-15T16:19:30.184Z,19.63
2023-05-15T16:21:57.127Z,19.82
2023-05-15T16:24:24.422Z,19.33
2023-05-15T16:26:55.273Z,20.08
2023-05-15T16:29:24.079Z,19.82
2023-05-15T16:31:51.213Z,18.91
2023-05-15T16:34:18.150Z,19.02
2023-05-15T16:36:44.998Z,18.25
2023-05-15T16:39:11.888Z,19.06
2023-05-15T16:41:38.746Z,19.01
2023-05-15T16:44:10.840Z,18.63
2023-05-15T16:46:38.428Z,18.26
2023-05-15T16:49:13.261Z,17.61
2023-05-15T16:51:40.125Z,17.62
2023-05-15T16:54:07.515Z,17.65
2023-05-15T16:56:34.403Z,17.97
2023-05-15T16:59:01.260Z,18.20
2023-05-15T17:01:28.158Z,17.87
2023-05-15T17:03:55.094Z,18.02
2023-05-15T17:06:21.930Z,17.79
2023-05-15T17:08:48.827Z,18.03
2023-05-15T17:11:15.697Z,17.80
2023-05-15T17:13:42.568Z,17.76
2023-05-15T17:16:09.471Z,18.07
2023-05-15T17:18:47.626Z,17.54
2023-05-15T17:21:14.455Z,17.96
2023-05-15T17:23:41.356Z,18.43
2023-05-15T17:26:08.232Z,18.16
2023-05-15T17:28:35.853Z,17.83
2023-05-15T17:31:10.965Z,18.37
2023-05-15T17:33:37.786Z,17.83
2023-05-15T17:36:04.869Z,17.24
2023-05-15T17:38:32.751Z,17.38
2023-05-15T17:40:59.536Z,18.05
2023-05-15T17:43:26.363Z,17.83
2023-05-15T17:45:53.287Z,18.03
2023-05-15T17:48:20.175Z,17.59
2023-05-15T17:50:47.028Z,17.68
2023-05-15T17:53:13.911Z,17.31
2023-05-15T17:55:40.703Z,17.44
2023-05-15T17:58:07.549Z,17.60
2023-05-15T18:00:34.345Z,17.69
2023-05-15T18:03:01.723Z,18.15
2023-05-15T18:05:28.931Z,17.58
2023-05-15T18:07:58.260Z,17.70
2023-05-15T18:10:25.150Z,17.38
2023-05-15T18:12:52.124Z,17.87
2023-05-15T18:15:18.949Z,17.83
2023-05-15T18:17:45.874Z,18.11
2023-05-15T18:20:13.255Z,18.01
2023-05-15T18:22:41.129Z,18.88
2023-05-15T18:25:08.241Z,20.42
2023-05-15T18:27:35.124Z,20.69
2023-05-15T18:30:02.388Z,20.59
2023-05-15T18:32:29.256Z,20.67
2023-05-15T18:34:56.213Z,20.65
2023-05-15T18:37:23.137Z,20.80
2023-05-15T18:39:49.987Z,20.86
2023-05-15T18:42:16.958Z,20.85
2023-05-15T18:44:44.681Z,20.98
2023-05-15T18:47:11.561Z,21.22
2023-05-15T18:49:38.425Z,21.25
2023-05-15T18:52:06.235Z,21.23
2023-05-15T18:54:33.117Z,21.34
2023-05-15T18:57:00.107Z,21.57
2023-05-15T18:59:28.875Z,21.67
2023-05-15T19:01:55.741Z,21.65
2023-05-15T19:04:22.725Z,22.18
2023-05-15T19:06:50.495Z,21.40
2023-05-15T19:09:20.800Z,20.58
2023-05-15T19:11:49.492Z,21.19
2023-05-15T19:14:18.093Z,21.17
2023-05-15T19:16:46.238Z,21.03
2023-05-15T19:19:13.668Z,21.21
2023-05-15T19:21:40.639Z,21.26
2023-05-15T19:24:07.642Z,21.21
2023-05-15T19:26:34.653Z,21.27
2023-05-15T19:29:01.491Z,21.29
2023-05-15T19:31:31.905Z,21.01
2023-05-15T19:34:00.119Z,21.38
2023-05-15T19:36:27.405Z,21.32
2023-05-15T19:38:54.285Z,21.90
2023-05-15T19:41:22.441Z,21.82
2023-05-15T19:43:50.962Z,21.36
2023-05-15T19:46:18.655Z,20.97
2023-05-15T19:48:45.767Z,20.87
2023-05-15T19:51:12.758Z,21.06
2023-05-15T19:53:39.626Z,20.93
2023-05-15T19:56:06.687Z,21.05
2023-05-15T19:58:46.693Z,20.83
2023-05-15T20:01:13.827Z,21.00
2023-05-15T20:03:40.813Z,21.07
2023-05-15T20:06:07.820Z,21.04
2023-05-15T20:08:34.665Z,21.06
2023-05-15T20:11:01.637Z,20.34
2023-05-15T20:13:28.520Z,20.40
2023-05-15T20:16:00.084Z,20.50
2023-05-15T20:18:28.697Z,20.89
2023-05-15T20:20:56.005Z,20.73
2023-05-15T20:23:23.220Z,20.73
2023-05-15T20:25:50.917Z,20.46
2023-05-15T20:28:27.311Z,20.76
2023-05-15T20:30:57.565Z,20.53
2023-05-15T20:33:24.465Z,20.55
2023-05-15T20:35:51.782Z,20.45
2023-05-15T20:38:18.612Z,20.42
2023-05-15T20:40:45.452Z,20.14
2023-05-15T20:43:12.302Z,20.05
2023-05-15T20:45:39.692Z,20.53
2023-05-15T20:48:06.959Z,20.65
2023-05-15T20:50:33.864Z,20.64
2023-05-15T20:53:00.767Z,20.32
2023-05-15T20:55:27.690Z,20.00
2023-05-15T20:57:54.500Z,19.92
2023-05-15T21:00:21.484Z,20.17
2023-05-15T21:02:48.494Z,20.48
2023-05-15T21:05:15.591Z,20.43
2023-05-15T21:07:42.539Z,20.34
2023-05-15T21:10:09.530Z,20.34
2023-05-15T21:12:36.464Z,20.37
2023-05-15T21:15:04.430Z,20.01
2023-05-15T21:17:31.247Z,19.68
2023-05-15T21:19:58.654Z,20.23
2023-05-15T21:22:25.873Z,19.82
2023-05-15T21:24:52.743Z,19.79
2023-05-15T21:27:19.569Z,19.80
2023-05-15T21:29:46.717Z,20.53
2023-05-15T21:32:13.705Z,20.10
2023-05-15T21:34:41.222Z,20.00
2023-05-15T21:37:08.089Z,19.95
2023-05-15T21:39:34.878Z,19.22
2023-05-15T21:42:01.740Z,19.61
2023-05-15T21:44:28.531Z,19.40
2023-05-15T21:46:56.825Z,19.04
2023-05-15T21:49:27.599Z,19.03
2023-05-15T21:51:54.433Z,19.00
2023-05-15T21:54:21.286Z,19.24
2023-05-15T21:56:48.148Z,18.72
2023-05-15T21:59:15.995Z,19.05
2023-05-15T22:01:43.005Z,19.16
2023-05-15T22:04:10.054Z,18.75
2023-05-15T22:06:36.956Z,19.32
2023-05-15T22:09:03.857Z,20.31
2023-05-15T22:11:30.728Z,20.10
2023-05-15T22:13:57.549Z,20.33
2023-05-15T22:16:24.430Z,19.90
2023-05-15T22:18:54.197Z,19.50
2023-05-15T22:21:21.221Z,19.38
2023-05-15T22:23:48.383Z,19.73
2023-05-15T22:26:15.340Z,19.34
2023-05-15T22:28:42.384Z,19.24
2023-05-15T22:31:09.260Z,18.56
2023-05-15T22:33:36.196Z,19.18
2023-05-15T22:36:03.159Z,19.42
2023-05-15T22:38:31.107Z,19.68
2023-05-15T22:40:57.988Z,19.84
2023-05-15T22:43:25.093Z,19.54
2023-05-15T22:45:52.460Z,20.26
2023-05-15T22:48:21.013Z,19.97
2023-05-15T22:50:47.872Z,20.14
2023-05-15T22:53:15.199Z,19.88
2023-05-15T22:55:42.406Z,19.72
2023-05-15T22:58:09.258Z,19.35
2023-05-15T23:00:36.163Z,19.42
2023-05-15T23:03:03.204Z,19.85
2023-05-15T23:05:30.184Z,19.78
2023-05-15T23:08:34.849Z,20.19
2023-05-15T23:11:01.808Z,19.98
2023-05-15T23:13:28.758Z,19.42
2023-05-15T23:15:55.636Z,19.33
2023-05-15T23:18:22.489Z,18.53
2023-05-15T23:20:49.411Z,18.40
2023-05-15T23:23:16.310Z,17.72
2023-05-15T23:25:43.341Z,17.45
2023-05-15T23:28:16.292Z,17.08
2023-05-15T23:30:43.165Z,17.81
2023-05-15T23:33:10.281Z,18.50
2023-05-15T23:35:37.188Z,18.64
2023-05-15T23:38:14.291Z,18.48
2023-05-15T23:40:40.915Z,18.25
2023-05-15T23:43:07.823Z,18.67
2023-05-15T23:45:35.344Z,19.27
2023-05-15T23:48:02.180Z,18.76
2023-05-15T23:50:29.203Z,19.72
2023-05-15T23:52:56.199Z,19.26
2023-05-15T23:55:23.068Z,19.05
2023-05-15T23:57:49.997Z,18.96
